Time;durP1;ratioP1;P1;durP2;ratioP2;P2;SDS_P1;SDS_P2;PMS_P1;PMS_P2;Temp;Humidity;BMP_temperature;BMP_pressure;BME280_temperature;BME280_humidity;BME280_pressure;Samples;Min_cycle;Max_cycle;Signal;HPM_P1;HPM_P2
2022/06/11 00:00:55;;;;;;;;;;;;;;;23.19;56.70;94572.25;2057706;28;1769;-50
2022/06/11 00:01:58;;;;;;;;;;;;;;;23.20;56.62;94576.53;2058756;28;1180;-49
2022/06/11 00:03:00;;;;;;;;;;;;;;;23.21;56.68;94575.47;2054048;28;1094;-47
2022/06/11 00:04:05;;;;;;;;;;;;;;;23.20;56.87;94573.06;2053735;28;1652;-51
2022/06/11 00:05:07;;;;;;;;;;;;;;;23.22;57.01;94570.97;2058003;28;1472;-50
2022/06/11 00:06:10;;;;;;;;;;;;;;;23.23;56.85;94575.25;2058379;28;1557;-50
2022/06/11 00:07:14;;;;;;;;;;;;;;;23.21;57.04;94572.81;2058101;28;1505;-48
2022/06/11 00:08:17;;;;;;;;;;;;;;;23.21;56.85;94570.13;2056826;28;1581;-49
2022/06/11 00:09:22;;;;;;;;;;;;;;;23.21;57.16;94575.47;2058267;28;1549;-49
2022/06/11 00:10:25;;;;;;;;;;;;;;;23.23;56.29;94583.28;2058874;28;1172;-49
2022/06/11 00:11:28;;;;;;;;;;;;;;;23.24;56.95;94574.19;2058357;28;1609;-50
2022/06/11 00:12:31;;;;;;;;;;;;;;;23.26;57.13;94580.13;2058585;28;1175;-48
2022/06/11 00:13:34;;;;;;;;;;;;;;;23.27;57.06;94583.63;2057854;28;1486;-48
2022/06/11 00:14:36;;;;;;;;;;;;;;;23.28;56.89;94575.34;2053082;28;1469;-50
2022/06/11 00:15:39;;;;;;;;;;;;;;;23.26;56.59;94582.81;2053264;28;1708;-48
2022/06/11 00:16:41;;;;;;;;;;;;;;;23.26;57.29;94577.44;2058843;28;1102;-48
2022/06/11 00:17:44;;;;;;;;;;;;;;;23.27;57.12;94580.94;2058605;28;1156;-48
2022/06/11 00:18:48;;;;;;;;;;;;;;;23.26;57.71;94587.38;2058675;28;1109;-49
2022/06/11 00:19:49;;;;;;;;;;;;;;;23.27;57.22;94579.06;2057908;28;2276;-48
2022/06/11 00:20:53;;;;;;;;;;;;;;;23.28;56.96;94579.88;2058068;28;1514;-48
2022/06/11 00:21:55;;;;;;;;;;;;;;;23.29;57.39;94584.22;2057992;28;1987;-51
2022/06/11 00:22:58;;;;;;;;;;;;;;;23.28;57.60;94580.72;2058011;28;1728;-53
2022/06/11 00:24:00;;;;;;;;;;;;;;;23.28;57.13;94580.72;2055683;28;1798;-47
2022/06/11 00:25:03;;;;;;;;;;;;;;;23.29;56.98;94578.84;2058259;28;1117;-47
2022/06/11 00:26:07;;;;;;;;;;;;;;;23.28;57.45;94580.72;2053091;28;1777;-55
2022/06/11 00:27:10;;;;;;;;;;;;;;;23.29;57.84;94582.34;2054249;28;1544;-49
2022/06/11 00:28:12;;;;;;;;;;;;;;;23.30;57.98;94583.16;2057693;28;1455;-48
2022/06/11 00:29:15;;;;;;;;;;;;;;;23.30;58.03;94577.78;2058687;28;1093;-46
2022/06/11 00:30:19;;;;;;;;;;;;;;;23.30;58.38;94580.47;2057396;28;1536;-49
2022/06/11 00:31:21;;;;;;;;;;;;;;;23.30;58.53;94575.09;2057941;28;1536;-47
2022/06/11 00:32:24;;;;;;;;;;;;;;;23.27;58.45;94578.25;2058638;28;1039;-49
2022/06/11 00:33:26;;;;;;;;;;;;;;;23.30;58.48;94580.47;2057760;28;1480;-48
2022/06/11 00:34:29;;;;;;;;;;;;;;;23.30;57.97;94577.78;2054405;28;1679;-45
2022/06/11 00:35:31;;;;;;;;;;;;;;;23.32;59.09;94586.41;2057733;28;1506;-48
2022/06/11 00:36:34;;;;;;;;;;;;;;;23.29;58.92;94578.84;2058487;28;1105;-47
2022/06/11 00:37:36;;;;;;;;;;;;;;;23.29;58.35;94586.88;2048224;28;1618;-56
2022/06/11 00:38:40;;;;;;;;;;;;;;;23.24;58.72;94580.34;2057238;28;1852;-46
2022/06/11 00:39:42;;;;;;;;;;;;;;;23.18;59.21;94578.63;2057613;28;1562;-48
2022/06/11 00:40:46;;;;;;;;;;;;;;;23.17;59.01;94581.56;2057775;28;1480;-48
2022/06/11 00:41:52;;;;;;;;;;;;;;;23.14;58.85;94579.38;2050408;28;1989;-46
2022/06/11 00:42:55;;;;;;;;;;;;;;;23.13;58.92;94580.41;2050268;28;1657;-46
2022/06/11 00:43:57;;;;;;;;;;;;;;;23.13;58.77;94583.09;2057606;28;1563;-47
2022/06/11 00:45:15;;;;;;;;;;;;;;;23.15;59.17;94575.63;2057437;28;1651;-47
2022/06/11 00:46:52;;;;;;;;;;;;;;;23.14;58.66;94584.72;2057171;28;1719;-53
2022/06/11 00:47:58;;;;;;;;;;;;;;;23.13;58.50;94575.03;2025524;29;1569;-47
2022/06/11 00:49:01;;;;;;;;;;;;;;;23.15;58.73;94581.00;2015694;29;1525;-50
2022/06/11 00:50:16;;;;;;;;;;;;;;;23.16;58.83;94571.88;2025637;29;1126;-50
2022/06/11 00:51:20;;;;;;;;;;;;;;;23.16;59.19;94571.88;2025236;29;1482;-49
2022/06/11 00:52:26;;;;;;;;;;;;;;;23.18;59.12;94569.78;2024399;29;1562;-48
2022/06/11 00:53:32;;;;;;;;;;;;;;;23.17;58.74;94570.84;2034090;28;1543;-46
2022/06/11 00:54:36;;;;;;;;;;;;;;;23.15;58.47;94571.06;2057830;28;1815;-48
2022/06/11 00:55:39;;;;;;;;;;;;;;;23.17;58.93;94570.84;2058143;28;1794;-51
2022/06/11 00:56:44;;;;;;;;;;;;;;;23.16;58.49;94572.72;2057617;28;1448;-50
2022/06/11 00:57:50;;;;;;;;;;;;;;;23.17;58.77;94573.53;2058191;28;1044;-51
2022/06/11 00:58:54;;;;;;;;;;;;;;;23.17;58.58;94573.53;2056848;28;1510;-48
2022/06/11 00:59:59;;;;;;;;;;;;;;;23.18;58.46;94570.59;2052659;28;1616;-47
2022/06/11 01:01:02;;;;;;;;;;;;;;;23.17;58.58;94577.03;2052747;28;1556;-49
2022/06/11 01:02:04;;;;;;;;;;;;;;;23.19;58.45;94568.72;2058296;28;1922;-51
2022/06/11 01:03:07;;;;;;;;;;;;;;;23.19;58.64;94576.78;2058349;28;1118;-48
2022/06/11 01:04:29;;;;;;;;;;;;;;;23.18;58.10;94564.44;2056325;28;1568;-47
2022/06/11 01:05:33;;;;;;;;;;;;;;;23.19;58.58;94566.03;2054468;28;1556;-47
2022/06/11 01:06:37;;;;;;;;;;;;;;;23.18;58.39;94575.97;2057865;28;1080;-49
2022/06/11 01:07:44;;;;;;;;;;;;;;;23.17;58.71;94573.53;2058348;28;1018;-47
2022/06/11 01:08:52;;;;;;;;;;;;;;;23.16;58.56;94572.72;2057606;28;1569;-48
2022/06/11 01:10:01;;;;;;;;;;;;;;;23.17;58.37;94568.16;2058331;28;1027;-49
2022/06/11 01:11:11;;;;;;;;;;;;;;;23.18;58.27;94569.78;2053298;28;1740;-49
2022/06/11 01:12:17;;;;;;;;;;;;;;;23.19;58.18;94571.41;2048063;28;1643;-50
2022/06/11 01:13:32;;;;;;;;;;;;;;;23.18;58.36;94569.78;2057643;28;1543;-47
2022/06/11 01:14:40;;;;;;;;;;;;;;;23.20;58.11;94573.06;2057742;28;1149;-51
2022/06/11 01:15:45;;;;;;;;;;;;;;;23.20;58.24;94565.00;2057072;28;1655;-51
2022/06/11 01:16:52;;;;;;;;;;;;;;;23.18;57.93;94569.78;2050316;28;1180;-48
2022/06/11 01:18:02;;;;;;;;;;;;;;;23.18;58.12;94567.91;2055441;28;1504;-51
2022/06/11 01:19:19;;;;;;;;;;;;;;;23.19;57.82;94571.41;2057631;28;1543;-47
2022/06/11 01:20:29;;;;;;;;;;;;;;;23.17;58.18;94568.97;2057532;28;1589;-49
2022/06/11 01:21:36;;;;;;;;;;;;;;;23.17;57.50;94570.84;2057790;28;1160;-50
2022/06/11 01:23:10;;;;;;;;;;;;;;;23.15;57.92;94576.44;2053600;28;1907;-49
2022/06/11 01:24:27;;;;;;;;;;;;;;;23.17;57.93;94568.97;2057166;28;1552;-57
2022/06/11 01:25:32;;;;;;;;;;;;;;;23.16;57.90;94564.69;2057986;28;1885;-50
2022/06/11 01:26:54;;;;;;;;;;;;;;;23.19;57.99;94566.03;2058047;28;1104;-53
2022/06/11 01:28:08;;;;;;;;;;;;;;;23.16;57.73;94566.53;2057855;28;1575;-48
2022/06/11 01:29:33;;;;;;;;;;;;;;;23.14;57.71;94574.00;2056143;28;1479;-46
2022/06/11 01:30:43;;;;;;;;;;;;;;;23.12;57.69;94565.38;2036029;28;2877;-48
2022/06/11 01:31:47;;;;;;;;;;;;;;;23.11;57.59;94569.94;2058277;28;1323;-47
2022/06/11 01:32:56;;;;;;;;;;;;;;;23.12;57.71;94568.88;2057206;28;1539;-47
2022/06/11 01:34:04;;;;;;;;;;;;;;;23.11;57.69;94563.78;2051520;28;1332;-46
2022/06/11 01:35:19;;;;;;;;;;;;;;;23.11;57.89;94569.94;2048788;28;1643;-50
2022/06/11 01:36:22;;;;;;;;;;;;;;;23.12;57.57;94576.09;2049524;28;1638;-47
2022/06/11 01:37:27;;;;;;;;;;;;;;;23.13;57.39;94567.00;2054791;28;1246;-48
2022/06/11 01:38:31;;;;;;;;;;;;;;;23.12;57.51;94573.44;2054253;28;1488;-50
2022/06/11 01:39:35;;;;;;;;;;;;;;;23.11;57.57;94569.13;2053218;28;1243;-48
2022/06/11 01:40:43;;;;;;;;;;;;;;;23.11;57.24;94566.44;2054508;28;1524;-51
2022/06/11 01:41:48;;;;;;;;;;;;;;;23.11;57.26;94575.31;2050161;28;1103;-49
2022/06/11 01:42:52;;;;;;;;;;;;;;;23.10;57.77;94572.84;2052967;28;1911;-48
2022/06/11 01:43:58;;;;;;;;;;;;;;;23.09;57.33;94571.22;2057221;28;1781;-49
2022/06/11 01:45:03;;;;;;;;;;;;;;;23.10;57.35;94570.16;2055319;28;1155;-52
2022/06/11 01:46:17;;;;;;;;;;;;;;;23.10;57.69;94578.19;2052962;28;1747;-53
2022/06/11 01:47:19;;;;;;;;;;;;;;;23.10;57.73;94573.66;2058296;28;1062;-47
2022/06/11 01:48:24;;;;;;;;;;;;;;;23.09;57.15;94572.03;2057697;28;1527;-48
2022/06/11 01:49:38;;;;;;;;;;;;;;;23.12;57.48;94568.06;2058072;28;1682;-51
2022/06/11 01:50:44;;;;;;;;;;;;;;;23.15;57.52;94565.72;2057387;28;1622;-48
2022/06/11 01:51:51;;;;;;;;;;;;;;;23.20;57.26;94578.41;2056904;28;1479;-49
2022/06/11 01:53:17;;;;;;;;;;;;;;;23.24;57.20;94574.19;2057220;28;1694;-49
2022/06/11 01:54:23;;;;;;;;;;;;;;;23.27;56.79;94580.94;2049703;29;1368;-50
2022/06/11 01:55:32;;;;;;;;;;;;;;;23.26;56.76;94582.81;2052659;28;1681;-48
2022/06/11 01:56:46;;;;;;;;;;;;;;;23.28;56.83;94574.53;2052134;28;1583;-53
2022/06/11 01:57:58;;;;;;;;;;;;;;;23.26;57.06;94577.44;2053189;28;1696;-48
2022/06/11 01:59:10;;;;;;;;;;;;;;;23.27;56.91;94572.91;2056910;28;1972;-47
2022/06/11 02:00:15;;;;;;;;;;;;;;;23.28;56.70;94578.03;2056606;28;1539;-50
2022/06/11 02:01:24;;;;;;;;;;;;;;;23.28;56.74;94578.03;2057007;28;1551;-51
2022/06/11 02:02:36;;;;;;;;;;;;;;;23.28;56.83;94575.34;2057900;28;1085;-48
2022/06/11 02:03:42;;;;;;;;;;;;;;;23.28;56.86;94580.72;2057223;28;1907;-50
2022/06/11 02:04:47;;;;;;;;;;;;;;;23.29;56.58;94581.53;2049845;28;1064;-52
2022/06/11 02:05:56;;;;;;;;;;;;;;;23.30;56.58;94575.91;2053082;28;1600;-48
2022/06/11 02:07:04;;;;;;;;;;;;;;;23.28;56.65;94572.69;2056801;28;1459;-53
2022/06/11 02:08:15;;;;;;;;;;;;;;;23.28;56.53;94569.16;2053101;28;1520;-51
2022/06/11 02:09:22;;;;;;;;;;;;;;;23.28;56.54;94575.34;2053972;28;1176;-53
2022/06/11 02:10:28;;;;;;;;;;;;;;;23.28;56.67;94570.00;2057996;28;1164;-49
2022/06/11 02:11:33;;;;;;;;;;;;;;;23.29;56.39;94568.13;2056839;28;1470;-49
2022/06/11 02:12:39;;;;;;;;;;;;;;;23.29;56.63;94571.63;2057918;28;1737;-50
2022/06/11 02:13:43;;;;;;;;;;;;;;;23.30;56.51;94572.41;2057664;28;1099;-50
2022/06/11 02:14:50;;;;;;;;;;;;;;;23.29;56.67;94579.66;2056874;28;1575;-48
2022/06/11 02:15:55;;;;;;;;;;;;;;;23.30;56.50;94575.09;2057569;28;1749;-47
2022/06/11 02:17:02;;;;;;;;;;;;;;;23.30;56.08;94575.91;2057680;28;1172;-48
2022/06/11 02:18:06;;;;;;;;;;;;;;;23.30;56.27;94577.78;2057843;28;994;-49
2022/06/11 02:19:11;;;;;;;;;;;;;;;23.29;56.40;94574.28;2053729;28;1049;-49
2022/06/11 02:20:14;;;;;;;;;;;;;;;23.30;56.42;94578.59;2052027;28;1502;-47
2022/06/11 02:21:19;;;;;;;;;;;;;;;23.28;56.50;94578.03;2056490;28;1463;-47
2022/06/11 02:22:23;;;;;;;;;;;;;;;23.31;56.37;94582.91;2057131;28;1490;-47
2022/06/11 02:23:27;;;;;;;;;;;;;;;23.31;56.22;94584.78;2057784;28;1992;-48
2022/06/11 02:24:32;;;;;;;;;;;;;;;23.32;56.20;94581.03;2057779;28;1121;-48
2022/06/11 02:25:37;;;;;;;;;;;;;;;23.29;56.44;94579.66;2056522;28;1612;-49
2022/06/11 02:26:40;;;;;;;;;;;;;;;23.27;56.41;94573.72;2057032;28;1871;-49
2022/06/11 02:27:44;;;;;;;;;;;;;;;23.21;56.05;94575.47;2057123;28;1554;-47
2022/06/11 02:28:47;;;;;;;;;;;;;;;23.20;56.38;94579.22;2057526;28;1086;-48
2022/06/11 02:29:51;;;;;;;;;;;;;;;23.16;56.69;94580.78;2051897;28;1673;-49
2022/06/11 02:30:54;;;;;;;;;;;;;;;23.16;56.60;94579.94;2045212;28;1231;-48
2022/06/11 02:31:58;;;;;;;;;;;;;;;23.14;56.76;94576.69;2045375;28;1018;-51
2022/06/11 02:33:01;;;;;;;;;;;;;;;23.13;56.46;94583.09;2053884;28;1798;-52
2022/06/11 02:34:05;;;;;;;;;;;;;;;23.11;56.63;94577.97;2057195;28;1514;-46
2022/06/11 02:35:08;;;;;;;;;;;;;;;23.14;56.92;94582.06;2057745;28;1013;-47
2022/06/11 02:36:16;;;;;;;;;;;;;;;23.12;56.47;94581.47;2057485;28;1711;-48
2022/06/11 02:37:19;;;;;;;;;;;;;;;23.12;56.76;94581.47;2056858;28;1539;-50
2022/06/11 02:38:24;;;;;;;;;;;;;;;23.13;56.77;94588.44;2057271;28;1610;-48
2022/06/11 02:39:28;;;;;;;;;;;;;;;23.13;56.68;94580.41;2058031;28;1018;-47
2022/06/11 02:40:33;;;;;;;;;;;;;;;23.12;56.84;94584.97;2057060;28;1710;-48
2022/06/11 02:41:35;;;;;;;;;;;;;;;23.12;56.66;94582.28;2056639;28;1675;-49
2022/06/11 02:42:38;;;;;;;;;;;;;;;23.12;57.02;94579.59;2048395;28;1523;-54
2022/06/11 02:43:40;;;;;;;;;;;;;;;23.12;56.90;94581.47;2049221;28;1898;-47
2022/06/11 02:44:43;;;;;;;;;;;;;;;23.11;56.92;94577.97;2054007;28;1598;-48
2022/06/11 02:45:45;;;;;;;;;;;;;;;23.11;57.00;94579.84;2057388;28;1758;-51
2022/06/11 02:46:48;;;;;;;;;;;;;;;23.11;57.00;94579.84;2057602;28;1700;-48
2022/06/11 02:47:51;;;;;;;;;;;;;;;23.12;56.78;94581.47;2057546;28;1086;-47
2022/06/11 02:48:56;;;;;;;;;;;;;;;23.12;56.44;94573.44;2057079;28;1496;-48
2022/06/11 02:49:58;;;;;;;;;;;;;;;23.11;57.05;94577.97;2056898;28;1548;-49
2022/06/11 02:51:01;;;;;;;;;;;;;;;23.12;56.76;94576.09;2056656;28;1460;-49
2022/06/11 02:52:05;;;;;;;;;;;;;;;23.12;56.87;94576.09;2057746;28;1309;-48
2022/06/11 02:53:08;;;;;;;;;;;;;;;23.11;56.71;94579.84;2054330;28;1692;-53
2022/06/11 02:54:10;;;;;;;;;;;;;;;23.12;56.79;94576.91;2044636;28;1333;-49
2022/06/11 02:55:13;;;;;;;;;;;;;;;23.12;56.54;94576.09;2053689;28;1547;-50
2022/06/11 02:56:15;;;;;;;;;;;;;;;23.12;56.54;94581.47;2056593;28;1791;-48
2022/06/11 02:57:20;;;;;;;;;;;;;;;23.11;56.85;94574.50;2057705;28;1056;-49
2022/06/11 02:58:22;;;;;;;;;;;;;;;23.11;56.60;94580.66;2057111;28;1754;-48
2022/06/11 02:59:26;;;;;;;;;;;;;;;23.11;56.80;94582.53;2057113;28;1486;-50
2022/06/11 03:00:29;;;;;;;;;;;;;;;23.12;56.59;94581.47;2057745;28;1121;-49
2022/06/11 03:01:32;;;;;;;;;;;;;;;23.10;56.57;94584.38;2057924;28;1013;-47
2022/06/11 03:02:34;;;;;;;;;;;;;;;23.11;56.65;94585.22;2056926;28;1546;-47
2022/06/11 03:03:37;;;;;;;;;;;;;;;23.09;56.68;94582.75;2057112;28;1987;-48
2022/06/11 03:04:41;;;;;;;;;;;;;;;23.08;56.71;94591.00;2045267;28;1008;-47
2022/06/11 03:05:44;;;;;;;;;;;;;;;23.10;56.63;94589.72;2045547;28;1655;-48
2022/06/11 03:06:46;;;;;;;;;;;;;;;23.15;56.36;94584.47;2056875;28;1556;-49
2022/06/11 03:07:50;;;;;;;;;;;;;;;23.18;56.44;94591.22;2057736;28;1072;-48
2022/06/11 03:08:52;;;;;;;;;;;;;;;23.22;55.95;94590.53;2056805;28;1520;-49
2022/06/11 03:09:54;;;;;;;;;;;;;;;23.26;56.28;94588.19;2056935;28;1646;-49
2022/06/11 03:10:56;;;;;;;;;;;;;;;23.26;56.06;94598.09;2057516;28;1054;-49
2022/06/11 03:11:59;;;;;;;;;;;;;;;23.28;56.14;94594.13;2057587;28;954;-51
2022/06/11 03:13:02;;;;;;;;;;;;;;;23.26;55.97;94588.19;2056357;28;1435;-49
2022/06/11 03:14:04;;;;;;;;;;;;;;;23.25;56.06;94589.25;2057693;28;1117;-50
2022/06/11 03:15:07;;;;;;;;;;;;;;;23.22;56.30;94593.22;2057735;28;1098;-47
2022/06/11 03:16:10;;;;;;;;;;;;;;;23.22;56.07;94595.09;2051496;28;1810;-48
2022/06/11 03:17:15;;;;;;;;;;;;;;;23.22;56.02;94592.41;2050168;28;1685;-48
2022/06/11 03:18:17;;;;;;;;;;;;;;;23.21;56.23;94599.59;2055359;28;1740;-46
2022/06/11 03:19:21;;;;;;;;;;;;;;;23.22;56.15;94595.09;2056904;28;1678;-50
2022/06/11 03:20:25;;;;;;;;;;;;;;;23.22;56.27;94592.41;2049784;28;1043;-50
2022/06/11 03:21:28;;;;;;;;;;;;;;;23.28;56.13;94599.47;2051438;28;1518;-47
2022/06/11 03:22:30;;;;;;;;;;;;;;;23.21;56.18;94596.91;2057566;28;1105;-49
2022/06/11 03:23:32;;;;;;;;;;;;;;;23.15;56.45;94597.06;2056857;28;1608;-48
2022/06/11 03:24:35;;;;;;;;;;;;;;;23.15;56.57;94603.25;2057817;28;1910;-49
2022/06/11 03:25:38;;;;;;;;;;;;;;;23.14;56.17;94598.13;2057040;28;1839;-47
2022/06/11 03:26:40;;;;;;;;;;;;;;;23.14;56.27;94608.84;2049573;28;1176;-47
2022/06/11 03:27:43;;;;;;;;;;;;;;;23.13;56.28;94597.28;2041989;28;1027;-50
2022/06/11 03:28:45;;;;;;;;;;;;;;;23.12;56.31;94608.28;2048829;28;1335;-48
2022/06/11 03:29:48;;;;;;;;;;;;;;;23.12;56.08;94603.72;2049618;28;948;-48
2022/06/11 03:30:50;;;;;;;;;;;;;;;23.10;56.38;94610.34;2055243;28;1556;-48
2022/06/11 03:31:53;;;;;;;;;;;;;;;23.10;56.51;94605.00;2057575;28;1148;-48
2022/06/11 03:32:55;;;;;;;;;;;;;;;23.10;56.62;94605.00;2055283;28;1505;-49
2022/06/11 03:33:58;;;;;;;;;;;;;;;23.10;56.52;94599.66;2057609;28;1057;-47
2022/06/11 03:35:00;;;;;;;;;;;;;;;23.10;56.44;94600.44;2057186;28;1077;-48
2022/06/11 03:36:06;;;;;;;;;;;;;;;23.20;56.01;94606.03;2057391;28;1746;-48
2022/06/11 03:37:09;;;;;;;;;;;;;;;23.15;55.26;94610.47;2056945;28;1552;-50
2022/06/11 03:38:11;;;;;;;;;;;;;;;23.05;55.18;94608.41;2057615;28;1061;-47
2022/06/11 03:39:15;;;;;;;;;;;;;;;22.94;55.20;94604.69;2048906;28;1448;-48
2022/06/11 03:40:18;;;;;;;;;;;;;;;22.90;55.16;94606.22;2056386;28;1472;-49
2022/06/11 03:41:21;;;;;;;;;;;;;;;22.85;55.12;94600.78;2056788;28;1516;-47
2022/06/11 03:42:24;;;;;;;;;;;;;;;22.83;55.22;94600.19;2057150;28;1105;-48
2022/06/11 03:43:26;;;;;;;;;;;;;;;22.79;55.02;94594.50;2057406;28;1782;-49
2022/06/11 03:44:30;;;;;;;;;;;;;;;22.82;54.92;94601.22;2057478;28;1993;-47
2022/06/11 03:45:31;;;;;;;;;;;;;;;22.81;54.85;94604.13;2057482;28;1125;-49
2022/06/11 03:46:34;;;;;;;;;;;;;;;22.81;54.63;94598.78;2056986;28;1671;-49
2022/06/11 03:47:38;;;;;;;;;;;;;;;22.79;54.84;94602.53;2057586;28;1105;-48
2022/06/11 03:48:41;;;;;;;;;;;;;;;22.77;54.67;94604.63;2056693;28;1532;-48
2022/06/11 03:49:43;;;;;;;;;;;;;;;22.79;54.74;94601.69;2055090;28;1161;-52
2022/06/11 03:50:45;;;;;;;;;;;;;;;22.81;54.92;94602.28;2050586;28;1257;-50
2022/06/11 03:51:49;;;;;;;;;;;;;;;22.78;54.85;94602.75;2050272;28;1772;-51
2022/06/11 03:52:52;;;;;;;;;;;;;;;22.76;55.09;94597.63;2057624;28;1060;-48
2022/06/11 03:53:54;;;;;;;;;;;;;;;22.75;55.17;94597.88;2057617;28;1249;-50
2022/06/11 03:54:56;;;;;;;;;;;;;;;22.70;55.30;94600.41;2057245;28;1346;-48
2022/06/11 03:55:58;;;;;;;;;;;;;;;22.57;55.08;94601.47;2057387;28;1795;-47
2022/06/11 03:57:01;;;;;;;;;;;;;;;22.38;55.22;94591.94;2056744;28;1720;-46
2022/06/11 03:58:03;;;;;;;;;;;;;;;22.27;55.66;94606.94;2057457;28;1693;-48
2022/06/11 03:59:06;;;;;;;;;;;;;;;22.21;55.66;94602.50;2057356;28;1619;-47
2022/06/11 04:00:14;;;;;;;;;;;;;;;22.20;55.50;94598.22;2058733;28;1173;-47
2022/06/11 04:01:16;;;;;;;;;;;;;;;22.18;55.52;94605.66;2054222;28;1680;-47
2022/06/11 04:02:19;;;;;;;;;;;;;;;22.15;55.97;94598.09;2053473;28;1790;-56
2022/06/11 04:03:21;;;;;;;;;;;;;;;22.17;55.58;94602.16;2059004;28;1336;-50
2022/06/11 04:04:24;;;;;;;;;;;;;;;22.10;55.70;94601.44;2058542;28;1071;-51
2022/06/11 04:05:26;;;;;;;;;;;;;;;22.04;55.91;94595.16;2058067;28;1906;-49
2022/06/11 04:06:31;;;;;;;;;;;;;;;21.96;56.09;94600.84;2058824;28;1052;-50
2022/06/11 04:07:35;;;;;;;;;;;;;;;21.93;56.20;94605.81;2058304;28;1755;-48
2022/06/11 04:08:39;;;;;;;;;;;;;;;21.85;56.15;94605.13;2058179;28;1435;-49
2022/06/11 04:09:42;;;;;;;;;;;;;;;21.77;56.40;94599.25;2058217;28;1805;-51
2022/06/11 04:10:45;;;;;;;;;;;;;;;21.72;56.66;94601.81;2058891;28;1097;-50
2022/06/11 04:11:47;;;;;;;;;;;;;;;21.63;56.76;94602.16;2058573;28;1104;-48
2022/06/11 04:12:50;;;;;;;;;;;;;;;21.60;56.97;94607.94;2054676;28;1026;-50
2022/06/11 04:13:53;;;;;;;;;;;;;;;21.61;57.20;94614.09;2054151;28;1695;-49
2022/06/11 04:14:56;;;;;;;;;;;;;;;21.62;57.03;94615.72;2057099;28;1638;-49
2022/06/11 04:15:58;;;;;;;;;;;;;;;21.65;56.76;94615.28;2057952;28;1552;-51
2022/06/11 04:17:04;;;;;;;;;;;;;;;21.61;56.80;94617.59;2057844;28;1265;-48
2022/06/11 04:18:07;;;;;;;;;;;;;;;21.67;56.86;94621.22;2058973;28;1071;-50
2022/06/11 04:19:14;;;;;;;;;;;;;;;21.67;56.85;94618.53;2057350;28;1553;-51
2022/06/11 04:20:16;;;;;;;;;;;;;;;21.74;56.86;94623.78;2058990;28;994;-49
2022/06/11 04:21:20;;;;;;;;;;;;;;;21.78;56.95;94619.63;2058197;28;1487;-50
2022/06/11 04:22:22;;;;;;;;;;;;;;;21.75;56.98;94625.44;2055292;28;1536;-48
2022/06/11 04:23:29;;;;;;;;;;;;;;;21.73;56.90;94622.16;2058508;28;1849;-48
2022/06/11 04:24:32;;;;;;;;;;;;;;;21.73;56.97;94616.81;2051227;28;1301;-50
2022/06/11 04:25:34;;;;;;;;;;;;;;;21.74;56.96;94618.44;2057918;28;1955;-49
2022/06/11 04:26:38;;;;;;;;;;;;;;;21.72;57.10;94621.34;2057997;28;1457;-48
2022/06/11 04:27:40;;;;;;;;;;;;;;;21.72;56.85;94628.56;2057891;28;1585;-48
2022/06/11 04:28:43;;;;;;;;;;;;;;;21.71;57.15;94625.03;2057949;28;1540;-48
2022/06/11 04:29:49;;;;;;;;;;;;;;;21.72;57.07;94615.19;2058377;28;1900;-50
2022/06/11 04:30:50;;;;;;;;;;;;;;;21.76;57.11;94622.50;2056859;28;1768;-46
2022/06/11 04:31:55;;;;;;;;;;;;;;;21.71;57.00;94624.25;2054481;28;1736;-47
2022/06/11 04:32:56;;;;;;;;;;;;;;;21.70;57.06;94622.63;2058759;28;999;-47
2022/06/11 04:33:59;;;;;;;;;;;;;;;21.71;56.82;94629.59;2057826;28;1779;-50
2022/06/11 04:35:01;;;;;;;;;;;;;;;21.73;56.89;94622.16;2058414;28;1644;-48
2022/06/11 04:36:05;;;;;;;;;;;;;;;21.80;56.79;94623.69;2046804;28;1248;-48
2022/06/11 04:37:08;;;;;;;;;;;;;;;21.79;56.78;94627.41;2057563;28;1446;-48
2022/06/11 04:38:12;;;;;;;;;;;;;;;21.77;57.02;94620.66;2058719;28;1100;-48
2022/06/11 04:39:16;;;;;;;;;;;;;;;21.82;56.78;94626.13;2058532;28;1117;-51
2022/06/11 04:40:19;;;;;;;;;;;;;;;21.97;56.91;94628.41;2058484;28;1097;-63
2022/06/11 04:41:21;;;;;;;;;;;;;;;22.14;56.10;94624.03;2058104;28;1057;-57
2022/06/11 04:42:25;;;;;;;;;;;;;;;22.05;56.24;94626.25;2058523;28;1086;-55
2022/06/11 04:43:27;;;;;;;;;;;;;;;22.04;56.30;94623.78;2057593;28;1510;-58
2022/06/11 04:44:30;;;;;;;;;;;;;;;21.77;57.19;94628.66;2057595;28;1482;-57
2022/06/11 04:45:32;;;;;;;;;;;;;;;21.54;58.28;94627.56;2058557;28;1911;-57
2022/06/11 04:46:35;;;;;;;;;;;;;;;21.44;58.26;94628.09;2053697;28;2082;-57
2022/06/11 04:47:39;;;;;;;;;;;;;;;21.32;58.28;94635.25;2052076;28;1495;-57
2022/06/11 04:48:42;;;;;;;;;;;;;;;21.26;58.53;94630.03;2057183;28;1582;-56
2022/06/11 04:49:44;;;;;;;;;;;;;;;21.15;59.02;94632.34;2058511;28;1045;-55
2022/06/11 04:50:47;;;;;;;;;;;;;;;21.15;58.76;94634.22;2057194;28;1556;-56
2022/06/11 04:51:49;;;;;;;;;;;;;;;21.11;59.16;94635.69;2058305;28;1740;-51
2022/06/11 04:52:52;;;;;;;;;;;;;;;21.11;59.11;94636.50;2057850;28;1650;-55
2022/06/11 04:53:55;;;;;;;;;;;;;;;21.13;59.31;94639.78;2058068;28;1738;-52
2022/06/11 04:54:58;;;;;;;;;;;;;;;21.15;59.23;94643.03;2056798;28;1696;-54
2022/06/11 04:56:01;;;;;;;;;;;;;;;21.23;58.96;94634.75;2057654;28;1553;-59
2022/06/11 04:57:03;;;;;;;;;;;;;;;21.29;58.85;94638.38;2054936;28;1272;-54
2022/06/11 04:58:06;;;;;;;;;;;;;;;21.14;58.71;94640.59;2052683;28;1552;-55
2022/06/11 04:59:08;;;;;;;;;;;;;;;21.15;58.75;94640.38;2052756;28;1485;-53
2022/06/11 05:00:15;;;;;;;;;;;;;;;21.17;59.04;94640.13;2057246;28;1744;-52
2022/06/11 05:01:18;;;;;;;;;;;;;;;21.01;59.23;94637.03;2058473;28;1193;-54
2022/06/11 05:02:22;;;;;;;;;;;;;;;21.00;59.57;94642.63;2058386;28;1113;-53
2022/06/11 05:03:25;;;;;;;;;;;;;;;20.94;59.71;94647.00;2058165;28;1037;-54
2022/06/11 05:04:28;;;;;;;;;;;;;;;20.95;60.02;94647.81;2057404;28;1570;-55
2022/06/11 05:05:30;;;;;;;;;;;;;;;21.02;59.87;94645.88;2057404;28;1997;-54
2022/06/11 05:06:35;;;;;;;;;;;;;;;21.03;59.62;94644.84;2058576;28;1024;-55
2022/06/11 05:07:37;;;;;;;;;;;;;;;21.06;59.72;94652.41;2058263;28;1089;-54
2022/06/11 05:08:40;;;;;;;;;;;;;;;21.06;59.53;94647.06;2057458;28;1559;-54
2022/06/11 05:09:41;;;;;;;;;;;;;;;21.06;59.09;94648.91;2052603;28;1624;-54
2022/06/11 05:10:46;;;;;;;;;;;;;;;20.98;59.40;94653.50;2053311;28;1585;-54
2022/06/11 05:11:49;;;;;;;;;;;;;;;20.88;59.58;94657.72;2057526;28;1413;-55
2022/06/11 05:12:52;;;;;;;;;;;;;;;20.91;59.60;94657.28;2057786;28;1521;-55
2022/06/11 05:13:55;;;;;;;;;;;;;;;20.90;59.65;94658.34;2057948;28;1104;-55
2022/06/11 05:14:56;;;;;;;;;;;;;;;20.88;59.91;94653.19;2057429;28;1408;-56
2022/06/11 05:16:00;;;;;;;;;;;;;;;20.86;60.26;94662.47;2058385;28;1085;-55
2022/06/11 05:17:02;;;;;;;;;;;;;;;20.88;60.18;94652.41;2057794;28;1513;-55
2022/06/11 05:18:05;;;;;;;;;;;;;;;20.89;59.91;94657.53;2050193;28;1094;-56
2022/06/11 05:19:08;;;;;;;;;;;;;;;20.93;59.64;94657.91;2054321;28;1695;-56
2022/06/11 05:20:10;;;;;;;;;;;;;;;20.93;59.44;94656.03;2058151;28;1192;-54
2022/06/11 05:21:13;;;;;;;;;;;;;;;20.90;59.54;94661.81;2051456;28;1212;-57
2022/06/11 05:22:16;;;;;;;;;;;;;;;20.86;59.26;94657.97;2055869;28;1716;-55
2022/06/11 05:23:19;;;;;;;;;;;;;;;20.92;59.42;94662.41;2058248;28;1060;-57
2022/06/11 05:24:21;;;;;;;;;;;;;;;20.85;59.76;94664.34;2058157;28;1022;-55
2022/06/11 05:25:24;;;;;;;;;;;;;;;20.82;59.77;94664.78;2058311;28;1049;-56
2022/06/11 05:26:30;;;;;;;;;;;;;;;20.79;59.95;94663.38;2057111;28;1998;-55
2022/06/11 05:27:34;;;;;;;;;;;;;;;20.88;59.64;94668.41;2057849;28;1536;-54
2022/06/11 05:28:36;;;;;;;;;;;;;;;20.87;60.03;94664.94;2049236;28;1464;-55
2022/06/11 05:29:43;;;;;;;;;;;;;;;20.84;59.68;94669.91;2052238;28;1562;-58
2022/06/11 05:30:46;;;;;;;;;;;;;;;20.86;59.98;94670.47;2055063;28;1191;-54
2022/06/11 05:31:48;;;;;;;;;;;;;;;20.82;59.72;94674.66;2057134;28;1488;-56
2022/06/11 05:32:58;;;;;;;;;;;;;;;20.78;59.59;94680.44;2050372;28;1526;-56
2022/06/11 05:34:00;;;;;;;;;;;;;;;20.80;59.85;94677.56;2056238;28;1579;-56
2022/06/11 05:35:05;;;;;;;;;;;;;;;20.79;60.16;94676.72;2055688;28;1261;-56
2022/06/11 05:36:08;;;;;;;;;;;;;;;20.84;59.98;94677.91;2049492;29;1106;-55
2022/06/11 05:37:10;;;;;;;;;;;;;;;20.96;59.61;94681.47;2050896;28;1693;-57
2022/06/11 05:38:15;;;;;;;;;;;;;;;21.00;59.36;94678.16;2049188;28;1090;-57
2022/06/11 05:39:17;;;;;;;;;;;;;;;21.02;59.77;94680.59;2047806;28;1098;-57
2022/06/11 05:40:21;;;;;;;;;;;;;;;21.01;59.70;94679.78;2054246;28;1508;-56
2022/06/11 05:41:23;;;;;;;;;;;;;;;21.05;59.55;94687.34;2057735;28;1109;-56